Latest Weather Observations for Lord Howe Island

IDN60801

Issued at 2:43 pm EDT Tuesday 18 January 2022 (issued every 10 minutes, with the page automatically refreshed every 10 minutes)

About weather observations | Map of weather stations | Latest weather observations for NSW | Other Formats
Station Details ID: 200839 Name: LORD HOWE ISLAND AERO Lat: -31.54 Lon: 159.08 Height: 5.0 m
Data from the previous 72 hours. | See also: Recent months at Lord Howe Island

Observations are collected in the New South Wales time zone (Eastern Standard Time) which includes daylight savings in the summer period. Therefore 'Rain since 9am' totals and other values are based on the New South Wales time zone, which may differ from local time.

Date/Time
EDT
Temp
°C
App
Temp
°C
Dew
Point
°C
Rel
Hum
%
Delta-T
°C
Wind Press
QNH
hPa
Press
MSL
hPa
Rain since
9am
mm
Dir  Spd
km/h
Gust
km/h
Spd
kts
Gust
kts
18/02:30pm 25.6 25.0 18.8 66 4.3 NE 20 26 11 14 1013.8 1013.8 0.0
18/02:00pm 25.9 26.2 20.7 73 3.4 NE 20 24 11 13 1013.9 1013.9 0.0
18/01:30pm 25.9 25.9 20.2 71 3.7 NE 20 28 11 15 1014.3 1014.3 0.0
18/01:00pm 25.6 25.5 19.9 70 3.7 NE 20 26 11 14 1014.8 1014.8 0.0
18/12:30pm 26.1 25.8 20.4 71 3.7 NE 22 30 12 16 1014.9 1014.9 0.0
18/12:00pm 25.6 25.1 19.9 70 3.7 NE 22 26 12 14 1015.4 1015.4 0.0
18/11:30am 26.3 26.5 20.6 71 3.7 NE 20 26 11 14 1015.3 1015.3 0.0
18/11:00am 26.0 25.6 20.1 70 3.8 NE 22 26 12 14 1015.3 1015.3 0.0
18/10:30am 25.6 24.9 20.2 72 3.5 NE 24 28 13 15 1015.2 1015.2 0.0
18/10:00am 25.4 24.2 19.3 69 3.9 NE 24 28 13 15 1015.2 1015.2 0.0
18/09:39am 25.3 23.7 19.2 69 3.9 NE 26 30 14 16 1015.0 1015.0 0.0
18/09:30am 25.0 23.5 19.4 71 3.6 NE 26 30 14 16 1015.0 1015.0 0.0
18/09:00am 24.6 23.5 19.4 73 3.3 NE 24 30 13 16 1014.9 1014.9 0.0
18/08:58am 24.8 23.9 19.8 74 3.2 NE 24 30 13 16 1014.9 1014.9 0.0
18/08:50am 25.0 24.3 20.3 75 3.1 NE 24 32 13 17 1014.8 1014.8 0.0
18/08:30am 24.8 24.4 20.1 75 3.0 NE 22 30 12 16 1015.1 1015.1 0.0
18/08:23am 24.8 24.5 20.3 76 2.9 NE 22 28 12 15 1015.0 1015.0 0.0
18/08:00am 24.2 23.8 20.1 78 2.7 NE 22 28 12 15 1014.9 1014.9 0.0
18/07:30am 23.5 22.8 19.6 79 2.5 ENE 22 28 12 15 1014.8 1014.8 0.0
18/07:00am 23.3 22.6 19.5 79 2.4 ENE 22 28 12 15 1014.6 1014.6 0.0
18/06:30am 23.1 22.0 19.5 80 2.3 ENE 24 28 13 15 1014.3 1014.3 0.0
18/06:00am 23.1 22.5 19.7 81 2.2 NE 22 26 12 14 1014.3 1014.3 0.0
18/05:30am 22.9 22.2 19.5 81 2.2 NE 22 28 12 15 1013.9 1013.9 0.0
18/05:00am 22.9 22.1 19.3 80 2.3 ENE 22 26 12 14 1013.7 1013.7 0.0
18/04:46am 22.9 22.1 19.3 80 2.3 ENE 22 28 12 15 1013.8 1013.8 0.0
18/04:30am 23.0 22.8 19.8 82 2.1 ENE 20 26 11 14 1013.9 1013.9 0.0
18/04:00am 23.0 22.7 19.6 81 2.2 NE 20 24 11 13 1013.8 1013.8 0.0
18/03:48am 23.1 23.0 19.9 82 2.1 NE 20 24 11 13 1013.8 1013.8 0.0
18/03:30am 23.0 23.0 19.8 82 2.1 NE 19 24 10 13 1013.8 1013.8 0.0
18/03:22am 22.9 23.3 19.9 83 1.9 NE 17 22 9 12 1013.8 1013.8 0.0
18/03:00am 23.0 23.0 19.8 82 2.1 NE 19 24 10 13 1013.8 1013.8 0.0
18/02:30am 23.2 23.4 20.2 83 1.9 NE 19 24 10 13 1013.9 1013.9 0.0
18/02:00am 23.5 23.9 20.6 84 1.9 NE 19 24 10 13 1014.2 1014.2 0.0
18/01:52am 23.3 23.5 20.1 82 2.1 NE 19 24 10 13 1014.3 1014.3 0.0
18/01:30am 23.2 23.3 20.0 82 2.1 NE 19 24 10 13 1014.4 1014.4 0.0
18/01:00am 23.2 23.1 20.0 82 2.1 NE 20 26 11 14 1014.6 1014.6 0.0
18/12:30am 23.1 22.9 19.7 81 2.2 NE 20 24 11 13 1014.7 1014.7 0.0
18/12:00am 23.2 22.9 19.6 80 2.3 NE 20 24 11 13 1015.0 1015.0 0.0
 
Date/Time
EDT
Temp
°C
App
Temp
°C
Dew
Point
°C
Rel
Hum
%
Delta-T
°C
Wind Press
QNH
hPa
Press
MSL
hPa
Rain since
9am
mm
Dir  Spd
km/h
Gust
km/h
Spd
kts
Gust
kts
17/11:30pm 23.3 23.0 19.5 79 2.4 ENE 20 24 11 13 1015.1 1015.1 0.0
17/11:00pm 23.4 23.1 19.5 79 2.5 ENE 20 26 11 14 1015.1 1015.1 0.0
17/10:30pm 23.4 23.3 20.0 81 2.2 ENE 20 24 11 13 1015.1 1015.1 0.0
17/10:00pm 23.5 23.4 20.0 81 2.3 ENE 20 26 11 14 1014.9 1014.9 0.0
17/09:30pm 23.4 24.2 20.7 85 1.8 ENE 17 24 9 13 1014.7 1014.7 0.0
17/09:00pm 23.4 23.5 20.0 81 2.2 NE 19 22 10 12 1014.7 1014.7 0.0
17/08:34pm 23.3 23.5 20.2 83 2.0 ENE 19 24 10 13 1014.5 1014.5 0.0
17/08:30pm 23.3 23.6 20.4 84 1.9 ENE 19 24 10 13 1014.5 1014.5 0.0
17/08:24pm 23.4 23.5 20.3 83 2.0 ENE 20 26 11 14 1014.3 1014.3 0.0
17/08:17pm 23.4 23.5 20.3 83 2.0 ENE 20 26 11 14 1014.4 1014.4 0.0
17/08:00pm 23.4 23.6 20.2 82 2.1 ENE 19 24 10 13 1014.3 1014.3 0.0
17/07:59pm 23.5 23.8 20.4 83 2.0 ENE 19 24 10 13 1014.3 1014.3 0.0
17/07:58pm 23.5 23.8 20.4 83 2.0 ENE 19 22 10 12 1014.3 1014.3 0.0
17/07:45pm 23.6 23.7 20.3 82 2.1 ENE 20 24 11 13 1014.1 1014.1 0.0
17/07:30pm 23.5 23.8 20.4 83 2.0 ENE 19 24 10 13 1014.1 1014.1 0.0
17/07:26pm 23.6 23.9 20.5 83 2.0 ENE 19 24 10 13 1014.1 1014.1 0.0
17/07:00pm 23.8 23.5 20.3 81 2.3 ENE 22 26 12 14 1013.6 1013.6 0.0
17/06:54pm 24.0 23.8 20.5 81 2.3 ENE 22 26 12 14 1013.6 1013.6 0.0
17/06:30pm 24.2 23.9 20.3 79 2.5 ENE 22 28 12 15 1013.3 1013.3 0.0
17/06:00pm 24.6 25.3 20.5 78 2.7 ENE 17 20 9 11 1013.5 1013.5 0.0
17/05:30pm 25.0 25.9 20.9 78 2.7 ENE 17 22 9 12 1013.3 1013.3 0.0
17/05:00pm 24.9 25.0 20.4 76 2.9 ENE 20 24 11 13 1013.2 1013.2 0.0
17/04:30pm 25.6 26.4 20.6 74 3.3 NE 17 20 9 11 1013.3 1013.3 0.0
17/04:00pm 26.0 26.5 21.2 75 3.2 ENE 20 24 11 13 1013.2 1013.2 0.0
17/03:30pm 25.7 26.0 20.5 73 3.4 NE 19 24 10 13 1013.0 1013.0 0.0
17/03:00pm 25.7 26.1 20.7 74 3.3 NE 19 24 10 13 1013.2 1013.2 0.0
17/02:30pm 25.7 26.4 20.5 73 3.4 ENE 17 20 9 11 1013.4 1013.4 0.0
17/02:00pm 25.7 26.6 20.0 71 3.7 NE 15 19 8 10 1013.7 1013.7 0.0
17/01:30pm 25.8 26.8 21.0 75 3.2 NE 17 22 9 12 1013.8 1013.8 0.0
17/01:00pm 26.3 27.6 21.7 76 3.1 NE 17 20 9 11 1014.0 1014.0 0.0
17/12:30pm 25.3 25.6 20.3 74 3.3 ENE 19 22 10 12 1013.9 1013.9 0.0
17/12:00pm 25.6 26.0 19.9 70 3.7 NE 17 20 9 11 1014.1 1014.1 0.0
17/11:30am 26.3 27.7 21.9 77 2.9 NE 17 22 9 12 1014.2 1014.2 0.0
17/11:00am 26.0 27.3 20.8 73 3.4 NE 15 19 8 10 1014.3 1014.3 0.0
17/10:30am 25.1 26.4 20.1 74 3.2 NE 13 19 7 10 1014.4 1014.4 0.0
17/10:00am 25.5 26.6 20.5 74 3.3 NE 15 19 8 10 1014.3 1014.3 0.0
17/09:30am 25.2 26.7 20.5 75 3.1 NE 13 17 7 9 1014.3 1014.3 0.0
17/09:00am 24.9 26.4 19.7 73 3.4 ENE 11 15 6 8 1014.1 1014.1 0.0
17/08:30am 25.1 26.5 20.4 75 3.1 NE 13 17 7 9 1014.0 1014.0 0.0
17/08:00am 24.6 25.7 19.7 74 3.2 ENE 13 17 7 9 1014.1 1014.1 0.0
17/07:30am 24.2 26.2 19.9 77 2.8 ENE 9 13 5 7 1013.8 1013.8 0.0
17/07:00am 22.9 25.1 19.5 81 2.2 NE 7 11 4 6 1013.7 1013.7 0.0
17/06:30am 23.2 24.5 19.4 79 2.4 NE 11 15 6 8 1013.3 1013.3 0.0
17/06:24am 23.0 24.4 19.6 81 2.2 NE 11 15 6 8 1013.5 1013.5 0.0
17/06:10am 22.2 23.5 19.2 83 1.9 NE 11 13 6 7 1013.6 1013.6 0.0
17/06:00am 22.0 23.2 19.0 83 1.9 ENE 11 15 6 8 1013.2 1013.2 0.0
17/05:30am 21.6 22.9 18.4 82 2.0 NE 9 13 5 7 1012.5 1012.5 0.0
17/05:17am 21.9 23.0 18.9 83 1.9 NE 11 20 6 11 1012.4 1012.4 0.0
17/05:05am 21.8 22.9 18.8 83 1.9 NE 11 13 6 7 1012.8 1012.8 0.0
17/05:00am 21.8 23.0 19.0 84 1.8 NE 11 13 6 7 1012.6 1012.6 0.0
17/04:59am 21.8 23.0 19.0 84 1.8 NE 11 13 6 7 1012.5 1012.5 0.0
17/04:30am 21.5 23.0 18.9 85 1.6 NE 9 13 5 7 1012.5 1012.5 0.0
17/04:12am 20.7 21.8 18.1 85 1.6 NE 9 11 5 6 1012.5 1012.5 0.0
17/04:00am 21.2 22.3 18.0 82 2.0 NE 9 9 5 5 1012.6 1012.6 0.0
17/03:30am 22.2 23.7 18.8 81 2.1 NE 9 13 5 7 1012.5 1012.5 0.0
17/03:25am 22.2 23.3 18.8 81 2.1 NE 11 13 6 7 1012.6 1012.6 0.0
17/03:14am 22.3 23.5 19.1 82 2.0 NE 11 15 6 8 1012.7 1012.7 0.0
17/03:00am 22.4 23.6 19.0 81 2.2 NNE 11 13 6 7 1012.6 1012.6 0.0
17/02:42am 22.5 23.2 18.9 80 2.3 NE 13 17 7 9 1012.8 1012.8 0.0
17/02:30am 22.3 23.6 19.3 83 1.9 NE 11 15 6 8 1012.8 1012.8 0.0
17/02:27am 22.3 23.6 19.3 83 1.9 NE 11 15 6 8 1012.8 1012.8 0.0
17/02:20am 22.5 23.4 19.3 82 2.0 NE 13 15 7 8 1012.8 1012.8 0.0
17/02:01am 22.1 23.2 18.9 82 2.0 NE 11 15 6 8 1013.1 1013.1 0.0
17/02:00am 22.1 23.1 18.7 81 2.1 NE 11 13 6 7 1013.1 1013.1 0.0
17/01:40am 22.4 23.2 19.0 81 2.2 ENE 13 15 7 8 1013.1 1013.1 0.0
17/01:30am 22.4 23.2 19.0 81 2.2 NE 13 17 7 9 1012.9 1012.9 0.0
17/01:00am 22.4 23.1 18.8 80 2.3 NE 13 17 7 9 1013.2 1013.2 0.0
17/12:43am 22.5 23.2 18.9 80 2.3 NE 13 17 7 9 1012.6 1012.6 0.0
17/12:30am 22.5 23.2 18.9 80 2.3 NE 13 17 7 9 1013.1 1013.1 0.0
17/12:18am 22.7 23.7 19.5 82 2.0 NE 13 17 7 9 1013.2 1013.2 0.0
17/12:00am 22.5 23.5 19.5 83 1.9 NE 13 15 7 8 1013.5 1013.5 0.0
 
Date/Time
EDT
Temp
°C
App
Temp
°C
Dew
Point
°C
Rel
Hum
%
Delta-T
°C
Wind Press
QNH
hPa
Press
MSL
hPa
Rain since
9am
mm
Dir  Spd
km/h
Gust
km/h
Spd
kts
Gust
kts
16/11:39pm 22.6 23.9 19.4 82 2.0 NE 11 15 6 8 1013.7 1013.7 0.0
16/11:30pm 22.6 23.5 19.2 81 2.2 NE 13 17 7 9 1013.5 1013.5 0.0
16/11:00pm 22.7 23.1 19.1 80 2.3 NE 15 19 8 10 1013.7 1013.7 0.0
16/10:30pm 22.8 23.2 19.0 79 2.4 ENE 15 17 8 9 1013.7 1013.7 0.0
16/10:18pm 22.7 23.0 18.7 78 2.5 ENE 15 19 8 10 1013.7 1013.7 0.0
16/10:04pm 22.7 23.3 18.7 78 2.5 NE 13 15 7 8 1013.6 1013.6 0.0
16/10:00pm 22.7 23.3 18.5 77 2.6 NE 13 17 7 9 1013.6 1013.6 0.0
16/09:38pm 22.8 23.3 19.2 80 2.3 NE 15 17 8 9 1013.3 1013.3 0.0
16/09:30pm 22.7 23.4 18.9 79 2.4 ENE 13 17 7 9 1013.1 1013.1 0.0
16/09:26pm 22.7 23.4 18.9 79 2.4 NE 13 17 7 9 1013.1 1013.1 0.0
16/09:00pm 22.7 23.1 18.9 79 2.4 NE 15 17 8 9 1012.8 1012.8 0.0
16/08:30pm 22.8 23.5 18.8 78 2.5 NE 13 17 7 9 1012.5 1012.5 0.0
16/08:23pm 22.8 23.3 19.2 80 2.3 ENE 15 17 8 9 1012.4 1012.4 0.0
16/08:09pm 22.8 23.2 19.0 79 2.4 NE 15 19 8 10 1012.3 1012.3 0.0
16/08:00pm 23.0 23.5 19.2 79 2.4 ENE 15 19 8 10 1012.2 1012.2 0.0
16/07:30pm 23.5 24.2 19.6 79 2.5 NE 15 20 8 11 1011.9 1011.9 0.0
16/07:00pm 23.8 24.1 18.7 73 3.2 NE 15 19 8 10 1011.7 1011.7 0.0
16/06:30pm 24.3 25.0 18.9 72 3.4 NE 13 17 7 9 1011.3 1011.3 0.0
16/06:00pm 24.6 24.9 18.8 70 3.7 NE 15 19 8 10 1011.2 1011.2 0.0
16/05:30pm 24.7 24.9 18.6 69 3.9 NE 15 19 8 10 1011.1 1011.1 0.0
16/05:00pm 25.4 26.0 19.5 70 3.8 NE 15 20 8 11 1011.0 1011.0 0.0
16/04:30pm 25.4 25.8 19.8 71 3.6 NE 17 20 9 11 1010.9 1010.9 0.0
16/04:00pm 25.6 26.1 19.3 68 4.1 NE 15 19 8 10 1011.1 1011.1 0.0
16/03:30pm 25.5 25.5 18.9 67 4.2 NE 17 19 9 10 1011.2 1011.2 0.0
16/03:00pm 25.5 25.7 19.4 69 3.9 NE 17 19 9 10 1011.2 1011.2 0.0
16/02:30pm 25.6 26.1 19.3 68 4.0 NE 15 19 8 10 1011.4 1011.4 0.0
16/02:00pm 25.9 26.4 19.3 67 4.2 NNE 15 20 8 11 1011.5 1011.5 0.0
16/01:30pm 26.1 26.4 20.4 71 3.7 NE 19 22 10 12 1011.7 1011.7 0.0
16/01:00pm 25.8 25.7 18.7 65 4.5 NNE 17 20 9 11 1011.6 1011.6 0.0
16/12:30pm 25.5 26.4 20.1 72 3.5 NE 15 19 8 10 1011.8 1011.8 0.0
16/12:00pm 25.6 26.2 20.2 72 3.5 NE 17 20 9 11 1012.2 1012.2 0.0
16/11:30am 25.5 26.0 19.2 68 4.0 NNE 15 19 8 10 1012.1 1012.1 0.0
16/11:00am 25.9 26.7 19.1 66 4.4 NE 13 17 7 9 1011.9 1011.9 0.0
16/10:30am 25.4 26.0 18.6 66 4.3 NNE 13 19 7 10 1012.2 1012.2 0.0
16/10:00am 25.6 25.3 18.3 64 4.6 NNE 17 20 9 11 1012.3 1012.3 0.0
16/09:30am 25.4 26.3 19.3 69 3.9 NNE 13 19 7 10 1012.3 1012.3 0.0
16/09:00am 24.5 25.4 18.4 69 3.9 NNE 11 17 6 9 1012.4 1012.4 0.0
16/08:30am 24.5 26.6 18.9 71 3.6 NNW 6 17 3 9 1012.5 1012.5 0.0
16/08:00am 23.4 25.5 19.3 78 2.6 NNE 7 15 4 8 1012.5 1012.5 0.0
16/07:30am 23.1 23.4 18.0 73 3.2 N 13 20 7 11 1012.1 1012.1 0.0
16/07:00am 24.2 24.1 19.5 75 3.0 NNE 19 24 10 13 1011.9 1011.9 0.0
16/06:30am 23.8 24.3 19.3 76 2.9 NNE 15 24 8 13 1011.3 1011.3 0.0
16/06:00am 22.9 23.3 19.1 79 2.4 NE 15 20 8 11 1010.9 1010.9 0.0
16/05:34am 22.9 23.0 18.4 76 2.8 NE 15 24 8 13 1011.0 1011.0 0.0
16/05:30am 22.8 23.4 18.6 77 2.6 NNE 13 24 7 13 1010.9 1010.9 0.0
16/05:06am 22.9 22.5 18.9 78 2.5 NNE 19 24 10 13 1010.8 1010.8 0.0
16/05:00am 22.7 22.2 18.7 78 2.5 NNE 19 22 10 12 1010.8 1010.8 0.0
16/04:45am 22.6 22.2 18.8 79 2.4 NE 19 26 10 14 1010.4 1010.4 0.0
16/04:30am 22.8 22.3 19.2 80 2.3 NE 20 24 11 13 1010.3 1010.3 0.0
16/04:23am 22.8 22.1 19.4 81 2.2 NNE 22 26 12 14 1010.4 1010.4 0.0
16/04:00am 22.7 22.1 18.9 79 2.4 NE 20 24 11 13 1010.3 1010.3 0.0
16/03:47am 22.6 21.5 18.6 78 2.5 NE 22 26 12 14 1010.1 1010.1 0.0
16/03:32am 22.6 21.6 18.8 79 2.4 NE 22 26 12 14 1010.0 1010.0 0.0
16/03:30am 22.5 21.8 18.7 79 2.4 NE 20 26 11 14 1010.1 1010.1 0.0
16/03:00am 22.5 22.2 18.3 77 2.6 NNE 17 28 9 15 1010.6 1010.6 0.0
16/02:30am 22.6 21.9 18.2 76 2.8 NNE 19 26 10 14 1010.8 1010.8 0.0
16/02:00am 22.7 22.4 18.3 76 2.8 NE 17 22 9 12 1010.8 1010.8 0.0
16/01:53am 22.7 22.2 17.8 74 3.0 NE 17 24 9 13 1010.7 1010.7 0.0
16/01:30am 22.7 21.7 18.9 79 2.4 NE 22 28 12 15 1010.8 1010.8 0.0
16/01:00am 22.7 22.1 18.9 79 2.4 NE 20 26 11 14 1011.2 1011.2 0.0
16/12:35am 22.8 22.3 19.2 80 2.3 NE 20 24 11 13 1011.5 1011.5 0.0
16/12:30am 22.8 22.4 19.4 81 2.2 NE 20 26 11 14 1011.5 1011.5 0.0
16/12:14am 22.7 21.8 19.1 80 2.3 NE 22 28 12 15 1011.6 1011.6 0.0
16/12:02am 22.8 22.0 19.2 80 2.3 NE 22 30 12 16 1011.6 1011.6 0.0
16/12:00am 22.8 22.0 19.2 80 2.3 NE 22 30 12 16 1011.6 1011.6 0.0
 
Date/Time
EDT
Temp
°C
App
Temp
°C
Dew
Point
°C
Rel
Hum
%
Delta-T
°C
Wind Press
QNH
hPa
Press
MSL
hPa
Rain since
9am
mm
Dir  Spd
km/h
Gust
km/h
Spd
kts
Gust
kts
15/11:30pm 22.8 21.8 18.8 78 2.5 NE 22 28 12 15 1011.8 1011.8 0.0
15/11:00pm 22.8 22.1 18.6 77 2.6 NNE 20 24 11 13 1012.4 1012.4 0.0
15/10:30pm 22.8 21.9 19.0 79 2.4 NE 22 28 12 15 1012.1 1012.1 0.0
15/10:00pm 22.8 22.1 19.4 81 2.2 NE 22 28 12 15 1012.1 1012.1 0.0
15/09:30pm 22.7 21.2 18.5 77 2.6 NE 24 30 13 16 1011.8 1011.8 0.0
15/09:28pm 22.7 21.6 18.7 78 2.5 NE 22 30 12 16 1011.9 1011.9 0.0
15/09:14pm 22.8 21.8 18.8 78 2.5 NE 22 30 12 16 1011.8 1011.8 0.0
15/09:00pm 22.8 21.5 19.0 79 2.4 NE 24 28 13 15 1011.5 1011.5 0.0
15/08:30pm 22.7 21.7 18.9 79 2.4 ENE 22 26 12 14 1011.4 1011.4 0.0
15/08:04pm 22.7 21.7 18.9 79 2.4 ENE 22 28 12 15 1011.5 1011.5 0.0
15/08:00pm 22.8 21.9 19.0 79 2.4 NE 22 28 12 15 1011.4 1011.4 0.0
15/07:30pm 23.0 22.8 19.4 80 2.3 NE 19 24 10 13 1011.8 1011.8 0.0
15/07:28pm 23.1 22.9 19.3 79 2.4 NE 19 24 10 13 1012.0 1012.0 0.0
15/07:08pm 22.9 22.3 18.4 76 2.8 NE 19 20 10 11 1011.7 1011.7 0.0
15/07:00pm 23.1 23.0 18.8 77 2.7 ENE 17 24 9 13 1011.6 1011.6 0.0
15/06:30pm 23.4 22.9 18.7 75 3.0 NE 19 24 10 13 1010.4 1010.4 0.0
15/06:27pm 23.4 23.5 19.1 77 2.7 ENE 17 22 9 12 1009.6 1009.6 0.0
15/06:23pm 23.2 22.7 18.7 76 2.8 ENE 19 24 10 13 1008.2 1008.2 0.0
15/06:08pm 23.6 23.1 18.7 74 3.1 NE 19 24 10 13 1010.2 1010.2 0.0
15/06:00pm 23.9 23.6 19.2 75 3.0 NE 19 24 10 13 1012.3 1012.3 0.0
15/05:54pm 23.8 23.5 19.1 75 3.0 NE 19 24 10 13 1013.1 1013.1 0.0
15/05:30pm 23.6 23.4 18.5 73 3.2 NE 17 20 9 11 1010.9 1010.9 0.0
15/05:00pm 24.3 24.4 19.1 73 3.3 NE 17 22 9 12 1011.0 1011.0 0.0
15/04:30pm 24.4 24.1 19.2 73 3.3 NE 19 26 10 14 1010.9 1010.9 0.0
15/04:00pm 24.8 24.1 18.3 67 4.1 NE 19 22 10 12 1011.1 1011.1 0.0
15/03:30pm 24.7 24.0 18.2 67 4.1 NE 19 22 10 12 1011.3 1011.3 0.0
15/03:00pm 24.6 24.6 19.0 71 3.6 NE 17 20 9 11 1011.5 1011.5 0.0

Other formats

Comma delimited format used in spreadsheet applications
http://www.bom.gov.au/fwo/IDN60801/IDN60801.94995.axf

JavaScript Object Notation format (JSON) in row-major order
http://www.bom.gov.au/fwo/IDN60801/IDN60801.94995.json

Data quality

Most of these data are generated automatically and are frequently updated. Quality checks on data are not normally performed. It is possible for incorrect values to appear. Refer to information at About Latest Weather Observations and please check the disclaimer before using these data.